Time;durP1;ratioP1;P1;durP2;ratioP2;P2;SDS_P1;SDS_P2;PMS_P1;PMS_P2;Temp;Humidity;BMP_temperature;BMP_pressure;BME280_temperature;BME280_humidity;BME280_pressure;Samples;Min_cycle;Max_cycle;Signal;HPM_P1;HPM_P2
2023/08/23 00:00:14;;;;;;;3.50;3.05;;;;;;;;;;5056689;28;20029;-60
2023/08/23 00:02:40;;;;;;;4.20;2.92;;;;;;;;;;5056293;28;20539;-59
2023/08/23 00:05:06;;;;;;;4.20;3.15;;;;;;;;;;5057342;28;20108;-60
2023/08/23 00:07:32;;;;;;;3.65;2.88;;;;;;;;;;5056776;28;20363;-60
2023/08/23 00:09:58;;;;;;;3.50;2.78;;;;;;;;;;5057345;28;20031;-60
2023/08/23 00:12:24;;;;;;;3.35;2.40;;;;;;;;;;5056882;28;20017;-60
2023/08/23 00:14:50;;;;;;;3.83;3.13;;;;;;;;;;5056578;28;20017;-60
2023/08/23 00:17:16;;;;;;;4.65;2.90;;;;;;;;;;5055897;28;20429;-60
2023/08/23 00:19:42;;;;;;;5.25;3.30;;;;;;;;;;5057114;28;20458;-60
2023/08/23 00:22:08;;;;;;;3.85;3.00;;;;;;;;;;5056235;28;20031;-60
2023/08/23 00:24:34;;;;;;;3.90;2.60;;;;;;;;;;5056683;28;20522;-60
2023/08/23 00:27:00;;;;;;;3.78;3.28;;;;;;;;;;5056079;28;20082;-60
2023/08/23 00:29:26;;;;;;;5.43;3.58;;;;;;;;;;5056107;28;20110;-60
2023/08/23 00:31:52;;;;;;;3.20;2.65;;;;;;;;;;5056636;28;20021;-60
2023/08/23 00:34:18;;;;;;;3.25;2.67;;;;;;;;;;5056056;28;20032;-60
2023/08/23 00:36:45;;;;;;;3.83;2.78;;;;;;;;;;5055827;28;20065;-60
2023/08/23 00:39:11;;;;;;;4.03;2.97;;;;;;;;;;5056429;28;20029;-60
2023/08/23 00:41:37;;;;;;;4.07;2.75;;;;;;;;;;5055854;28;20025;-60
2023/08/23 00:44:04;;;;;;;3.47;2.92;;;;;;;;;;5056351;28;20358;-60
2023/08/23 00:46:30;;;;;;;3.85;2.92;;;;;;;;;;5055787;28;20031;-60
2023/08/23 00:48:56;;;;;;;6.47;3.53;;;;;;;;;;5055708;28;20028;-60
2023/08/23 00:51:22;;;;;;;3.10;2.70;;;;;;;;;;5056462;28;20017;-60
2023/08/23 00:53:48;;;;;;;4.60;3.20;;;;;;;;;;5055685;28;20021;-60
2023/08/23 00:56:14;;;;;;;3.63;3.03;;;;;;;;;;5055543;28;20352;-60
2023/08/23 00:58:40;;;;;;;3.22;2.50;;;;;;;;;;5055812;28;20032;-60
2023/08/23 01:01:06;;;;;;;3.15;2.80;;;;;;;;;;5055495;28;20031;-60
2023/08/23 01:03:33;;;;;;;4.40;3.03;;;;;;;;;;5056006;28;20036;-59
2023/08/23 01:06:09;;;;;;;4.50;3.30;;;;;;;;;;5055935;28;20336;-60
2023/08/23 01:08:43;;;;;;;3.30;3.00;;;;;;;;;;5055947;28;20083;-60
2023/08/23 01:11:13;;;;;;;7.13;3.33;;;;;;;;;;5056194;28;20050;-59
2023/08/23 01:13:44;;;;;;;4.60;3.33;;;;;;;;;;5054920;28;20481;-59
2023/08/23 01:16:10;;;;;;;;;;;;;;;;;;5055656;28;20525;-59
2023/08/23 01:18:36;;;;;;;4.28;3.20;;;;;;;;;;5054750;28;19909;-59
2023/08/23 01:21:03;;;;;;;3.28;2.85;;;;;;;;;;5055520;28;20118;-59
2023/08/23 01:23:29;;;;;;;3.60;3.20;;;;;;;;;;5055116;28;20021;-59
2023/08/23 01:25:55;;;;;;;5.93;3.22;;;;;;;;;;5055813;28;20355;-59
2023/08/23 01:28:21;;;;;;;6.97;3.17;;;;;;;;;;5054762;28;20021;-59
2023/08/23 01:30:49;;;;;;;4.32;3.60;;;;;;;;;;5054989;28;20021;-59
2023/08/23 01:33:20;;;;;;;3.90;3.42;;;;;;;;;;5054928;28;20028;-59
2023/08/23 01:35:51;;;;;;;3.88;3.03;;;;;;;;;;5054561;28;20041;-60
2023/08/23 01:38:19;;;;;;;4.47;3.53;;;;;;;;;;5055451;28;20021;-60
2023/08/23 01:40:45;;;;;;;3.83;3.30;;;;;;;;;;5055016;28;20413;-60
2023/08/23 01:43:11;;;;;;;4.30;3.70;;;;;;;;;;5054730;28;20029;-59
2023/08/23 01:45:37;;;;;;;4.43;3.20;;;;;;;;;;5054680;28;20104;-60
2023/08/23 01:48:06;;;;;;;4.72;3.78;;;;;;;;;;5054571;28;20124;-60
2023/08/23 01:50:32;;;;;;;3.63;3.22;;;;;;;;;;5054900;28;20100;-60
2023/08/23 01:52:58;;;;;;;4.47;3.67;;;;;;;;;;5054754;28;20060;-59
2023/08/23 01:55:24;;;;;;;5.30;3.55;;;;;;;;;;5055307;28;20416;-61
2023/08/23 01:57:50;;;;;;;5.65;3.45;;;;;;;;;;5054296;28;20064;-60
2023/08/23 02:00:16;;;;;;;5.75;3.17;;;;;;;;;;5054719;28;20093;-59
2023/08/23 02:02:42;;;;;;;4.00;3.60;;;;;;;;;;5054065;28;20021;-59
2023/08/23 02:05:08;;;;;;;4.05;3.63;;;;;;;;;;5054828;28;20384;-60
2023/08/23 02:07:34;;;;;;;3.90;3.45;;;;;;;;;;5055105;28;20401;-60
2023/08/23 02:10:00;;;;;;;3.63;3.03;;;;;;;;;;5054725;28;20505;-60
2023/08/23 02:12:26;;;;;;;4.25;3.55;;;;;;;;;;5054399;28;20021;-60
2023/08/23 02:14:51;;;;;;;5.28;4.00;;;;;;;;;;5054144;28;20378;-59
2023/08/23 02:17:17;;;;;;;4.90;3.63;;;;;;;;;;5054309;28;20473;-59
2023/08/23 02:19:43;;;;;;;6.65;3.58;;;;;;;;;;5054336;28;20025;-59
2023/08/23 02:22:09;;;;;;;6.55;4.28;;;;;;;;;;5054044;28;20040;-59
2023/08/23 02:24:35;;;;;;;4.93;3.38;;;;;;;;;;5054689;28;20066;-59
2023/08/23 02:27:01;;;;;;;4.90;3.90;;;;;;;;;;5053947;28;20079;-59
2023/08/23 02:29:27;;;;;;;4.40;3.70;;;;;;;;;;5054752;28;20401;-60
2023/08/23 02:31:53;;;;;;;4.65;4.10;;;;;;;;;;5053875;28;20025;-58
2023/08/23 02:34:22;;;;;;;6.60;3.90;;;;;;;;;;5054341;28;20509;-59
2023/08/23 02:36:48;;;;;;;6.53;3.90;;;;;;;;;;5054613;28;20053;-59
2023/08/23 02:39:14;;;;;;;4.63;3.85;;;;;;;;;;5053429;28;20111;-59
2023/08/23 02:41:40;;;;;;;6.03;3.72;;;;;;;;;;5053860;28;20029;-59
2023/08/23 02:44:06;;;;;;;3.45;3.15;;;;;;;;;;5054518;28;20119;-59
2023/08/23 02:46:32;;;;;;;5.78;3.63;;;;;;;;;;5053660;28;20471;-59
2023/08/23 02:48:58;;;;;;;4.00;3.50;;;;;;;;;;5054502;28;20029;-59
2023/08/23 02:51:23;;;;;;;3.78;3.38;;;;;;;;;;5054397;28;20017;-59
2023/08/23 02:53:49;;;;;;;5.00;3.88;;;;;;;;;;5053837;28;20022;-59
2023/08/23 02:56:15;;;;;;;4.97;4.47;;;;;;;;;;5053886;28;20029;-59
2023/08/23 02:58:41;;;;;;;6.57;3.78;;;;;;;;;;5053239;28;20033;-59
2023/08/23 03:01:07;;;;;;;4.35;3.70;;;;;;;;;;5053459;28;20025;-59
2023/08/23 03:03:33;;;;;;;3.72;3.33;;;;;;;;;;5053439;28;20116;-59
2023/08/23 03:05:59;;;;;;;4.72;4.22;;;;;;;;;;5053767;28;20025;-59
2023/08/23 03:08:25;;;;;;;7.88;4.00;;;;;;;;;;5053756;28;20029;-59
2023/08/23 03:10:51;;;;;;;5.07;4.38;;;;;;;;;;5053407;28;20032;-59
2023/08/23 03:13:17;;;;;;;5.22;4.30;;;;;;;;;;5054191;28;20439;-59
2023/08/23 03:15:43;;;;;;;3.55;3.17;;;;;;;;;;5053066;28;20037;-59
2023/08/23 03:18:09;;;;;;;4.97;4.15;;;;;;;;;;5053519;28;20401;-60
2023/08/23 03:20:36;;;;;;;5.10;4.13;;;;;;;;;;5054191;28;20032;-59
2023/08/23 03:23:02;;;;;;;5.95;3.97;;;;;;;;;;5053353;28;20366;-59
2023/08/23 03:25:28;;;;;;;14.57;4.18;;;;;;;;;;5053244;28;20048;-60
2023/08/23 03:27:54;;;;;;;5.47;4.80;;;;;;;;;;5053260;28;20017;-60
2023/08/23 03:30:20;;;;;;;3.92;3.40;;;;;;;;;;5053514;28;20021;-59
2023/08/23 03:32:46;;;;;;;6.53;4.35;;;;;;;;;;5053738;28;20354;-60
2023/08/23 03:35:13;;;;;;;5.28;4.03;;;;;;;;;;5053446;28;20048;-60
2023/08/23 03:37:39;;;;;;;4.55;3.90;;;;;;;;;;5053677;28;20104;-60
2023/08/23 03:40:05;;;;;;;5.47;4.18;;;;;;;;;;5053266;28;20140;-60
2023/08/23 03:42:31;;;;;;;6.13;4.10;;;;;;;;;;5051939;28;20034;-59
2023/08/23 03:44:57;;;;;;;4.28;3.88;;;;;;;;;;5053313;28;20029;-60
2023/08/23 03:47:23;;;;;;;5.15;4.65;;;;;;;;;;5053079;28;20051;-59
2023/08/23 03:49:49;;;;;;;8.65;4.40;;;;;;;;;;5053415;28;20104;-59
2023/08/23 03:52:15;;;;;;;4.55;4.15;;;;;;;;;;5056201;28;20044;-59
2023/08/23 03:54:41;;;;;;;4.65;3.97;;;;;;;;;;5057553;28;20111;-60
2023/08/23 03:57:07;;;;;;;8.48;4.90;;;;;;;;;;5056642;28;20025;-60
2023/08/23 03:59:33;;;;;;;4.47;4.03;;;;;;;;;;5056936;28;20036;-60
2023/08/23 04:01:59;;;;;;;4.50;4.10;;;;;;;;;;5056621;28;20040;-59
2023/08/23 04:04:25;;;;;;;5.03;4.32;;;;;;;;;;5056331;28;20067;-60
2023/08/23 04:06:51;;;;;;;5.20;4.70;;;;;;;;;;5057046;28;20025;-59
2023/08/23 04:09:17;;;;;;;4.53;4.13;;;;;;;;;;5057321;28;20489;-59
2023/08/23 04:11:43;;;;;;;5.22;4.72;;;;;;;;;;5056641;28;20490;-59
2023/08/23 04:14:09;;;;;;;5.20;4.70;;;;;;;;;;5056389;28;20104;-59
2023/08/23 04:16:35;;;;;;;6.53;4.72;;;;;;;;;;5056887;28;20049;-59
2023/08/23 04:19:01;;;;;;;4.43;3.88;;;;;;;;;;5056528;28;20459;-58
2023/08/23 04:21:27;;;;;;;5.35;4.05;;;;;;;;;;5056290;28;20116;-59
2023/08/23 04:23:53;;;;;;;4.43;3.80;;;;;;;;;;5055895;28;20474;-59
2023/08/23 04:26:19;;;;;;;4.93;4.43;;;;;;;;;;5056148;28;20036;-59
2023/08/23 04:28:46;;;;;;;4.57;4.10;;;;;;;;;;5056610;28;20021;-59
2023/08/23 04:31:12;;;;;;;6.22;4.35;;;;;;;;;;5056093;28;20104;-59
2023/08/23 04:33:38;;;;;;;5.75;4.70;;;;;;;;;;5056032;28;20545;-59
2023/08/23 04:36:04;;;;;;;6.43;4.40;;;;;;;;;;5056720;28;20072;-59
2023/08/23 04:38:31;;;;;;;4.70;4.15;;;;;;;;;;5055778;28;20463;-59
2023/08/23 04:41:03;;;;;;;4.57;4.10;;;;;;;;;;5056461;28;20017;-59
2023/08/23 04:43:29;;;;;;;5.05;4.03;;;;;;;;;;5056168;28;20028;-59
2023/08/23 04:45:56;;;;;;;5.78;3.95;;;;;;;;;;5055816;28;20025;-59
2023/08/23 04:48:23;;;;;;;4.20;3.80;;;;;;;;;;5056219;28;20033;-59
2023/08/23 04:50:52;;;;;;;5.55;4.50;;;;;;;;;;5056292;28;20104;-59
2023/08/23 04:53:18;;;;;;;5.35;4.47;;;;;;;;;;5055631;28;20112;-59
2023/08/23 04:55:44;;;;;;;4.68;4.13;;;;;;;;;;5055849;28;20048;-59
2023/08/23 04:58:10;;;;;;;4.47;4.00;;;;;;;;;;5056312;28;20029;-59
2023/08/23 05:00:36;;;;;;;4.78;4.28;;;;;;;;;;5055866;28;20470;-59
2023/08/23 05:03:03;;;;;;;6.15;4.63;;;;;;;;;;5054849;28;20025;-59
2023/08/23 05:05:29;;;;;;;5.03;4.53;;;;;;;;;;5055455;28;20063;-59
2023/08/23 05:07:55;;;;;;;5.63;4.88;;;;;;;;;;5056152;28;20041;-59
2023/08/23 05:10:21;;;;;;;5.10;4.57;;;;;;;;;;5055891;28;20088;-59
2023/08/23 05:12:46;;;;;;;4.95;4.28;;;;;;;;;;5055633;28;20439;-59
2023/08/23 05:15:12;;;;;;;5.40;4.88;;;;;;;;;;5055555;28;20051;-59
2023/08/23 05:17:38;;;;;;;5.95;4.72;;;;;;;;;;5055146;28;20027;-59
2023/08/23 05:20:05;;;;;;;4.57;4.18;;;;;;;;;;5055672;28;20029;-59
2023/08/23 05:22:31;;;;;;;4.47;4.07;;;;;;;;;;5055184;28;20025;-59
2023/08/23 05:24:57;;;;;;;7.07;4.57;;;;;;;;;;5054969;28;20086;-59
2023/08/23 05:27:23;;;;;;;4.78;4.35;;;;;;;;;;5055007;28;20029;-59
2023/08/23 05:29:50;;;;;;;5.47;4.90;;;;;;;;;;5055102;28;20048;-59
2023/08/23 05:32:16;;;;;;;5.10;4.60;;;;;;;;;;5054709;28;20025;-59
2023/08/23 05:34:42;;;;;;;6.28;4.18;;;;;;;;;;5055621;28;20387;-59
2023/08/23 05:37:07;;;;;;;5.95;5.35;;;;;;;;;;5054246;28;20140;-59
2023/08/23 05:39:33;;;;;;;4.53;3.80;;;;;;;;;;5054990;28;20502;-59
2023/08/23 05:41:59;;;;;;;4.35;3.95;;;;;;;;;;5054692;28;20059;-59
2023/08/23 05:44:25;;;;;;;8.65;4.47;;;;;;;;;;5054331;28;20021;-59
2023/08/23 05:46:51;;;;;;;4.95;3.80;;;;;;;;;;5054310;28;20028;-59
2023/08/23 05:49:17;;;;;;;4.40;3.75;;;;;;;;;;5054824;28;20029;-59
2023/08/23 05:51:43;;;;;;;5.95;4.03;;;;;;;;;;5055391;28;20059;-59
2023/08/23 05:54:09;;;;;;;5.93;4.20;;;;;;;;;;5055120;28;20570;-60
2023/08/23 05:56:35;;;;;;;4.20;3.80;;;;;;;;;;5054471;28;20336;-59
2023/08/23 05:59:01;;;;;;;4.30;3.03;;;;;;;;;;5054683;28;20029;-59
2023/08/23 06:01:27;;;;;;;4.28;3.70;;;;;;;;;;5054384;28;20427;-59
2023/08/23 06:03:52;;;;;;;5.65;3.60;;;;;;;;;;5053936;28;20503;-58
2023/08/23 06:06:18;;;;;;;4.22;3.83;;;;;;;;;;5054568;28;20017;-59
2023/08/23 06:08:44;;;;;;;4.82;4.22;;;;;;;;;;5054589;28;20029;-59
2023/08/23 06:11:10;;;;;;;5.53;3.88;;;;;;;;;;5054162;28;20104;-59
2023/08/23 06:13:37;;;;;;;4.63;3.60;;;;;;;;;;5054145;28;20029;-59
2023/08/23 06:16:03;;;;;;;6.25;4.60;;;;;;;;;;5053171;28;20029;-58
2023/08/23 06:18:29;;;;;;;5.25;4.55;;;;;;;;;;5054035;28;20085;-59
2023/08/23 06:20:55;;;;;;;4.50;3.80;;;;;;;;;;5054579;28;20021;-59
2023/08/23 06:23:21;;;;;;;5.35;4.85;;;;;;;;;;5054303;28;20031;-59
2023/08/23 06:25:46;;;;;;;4.65;4.20;;;;;;;;;;5053844;28;20455;-59
2023/08/23 06:28:13;;;;;;;7.15;5.05;;;;;;;;;;5054083;28;20039;-59
2023/08/23 06:30:39;;;;;;;4.60;4.15;;;;;;;;;;5054055;28;20530;-59
2023/08/23 06:33:05;;;;;;;6.53;4.93;;;;;;;;;;5054112;28;20110;-59
2023/08/23 06:35:31;;;;;;;5.40;4.38;;;;;;;;;;5053630;28;20052;-60
2023/08/23 06:37:57;;;;;;;5.90;4.78;;;;;;;;;;5054218;28;20032;-60
2023/08/23 06:40:25;;;;;;;9.57;4.63;;;;;;;;;;5053468;28;20497;-60
2023/08/23 06:42:51;;;;;;;5.20;4.50;;;;;;;;;;5053946;28;20019;-60
2023/08/23 06:45:16;;;;;;;4.57;4.18;;;;;;;;;;5053630;28;20100;-60
2023/08/23 06:47:42;;;;;;;3.95;3.60;;;;;;;;;;5053573;28;20067;-60
2023/08/23 06:50:09;;;;;;;7.72;4.50;;;;;;;;;;5054014;28;20025;-60
2023/08/23 06:52:35;;;;;;;4.30;3.88;;;;;;;;;;5053572;28;20098;-60
2023/08/23 06:55:02;;;;;;;5.90;5.30;;;;;;;;;;5053466;28;20017;-60
2023/08/23 06:57:29;;;;;;;4.97;4.47;;;;;;;;;;5053318;28;20033;-60
2023/08/23 06:59:58;;;;;;;8.23;4.80;;;;;;;;;;5054289;28;20025;-60
2023/08/23 07:02:24;;;;;;;8.60;4.70;;;;;;;;;;5053505;28;20524;-60
2023/08/23 07:04:50;;;;;;;6.68;4.80;;;;;;;;;;5053155;28;20077;-60
2023/08/23 07:07:17;;;;;;;6.97;4.70;;;;;;;;;;5053816;28;20060;-60
2023/08/23 07:09:43;;;;;;;4.70;4.13;;;;;;;;;;5053931;28;20024;-60
2023/08/23 07:12:09;;;;;;;6.43;4.80;;;;;;;;;;5053730;28;20051;-60
2023/08/23 07:14:35;;;;;;;4.72;4.30;;;;;;;;;;5053980;28;20458;-59
2023/08/23 07:17:00;;;;;;;5.10;4.45;;;;;;;;;;5054052;28;20179;-60
2023/08/23 07:19:26;;;;;;;3.97;3.35;;;;;;;;;;5053480;28;20024;-60
2023/08/23 07:21:52;;;;;;;7.45;4.00;;;;;;;;;;5053883;28;20032;-59
2023/08/23 07:24:18;;;;;;;5.68;4.93;;;;;;;;;;5053607;28;20362;-60
2023/08/23 07:26:44;;;;;;;5.53;4.90;;;;;;;;;;5055253;28;20108;-60
2023/08/23 07:29:15;;;;;;;4.82;4.05;;;;;;;;;;5058078;28;20504;-60
2023/08/23 07:31:41;;;;;;;5.80;4.55;;;;;;;;;;5057919;28;20067;-60
2023/08/23 07:34:07;;;;;;;5.85;5.25;;;;;;;;;;5056867;28;20025;-59
2023/08/23 07:36:33;;;;;;;5.65;4.70;;;;;;;;;;5057860;28;20092;-60
2023/08/23 07:38:59;;;;;;;6.30;4.85;;;;;;;;;;5056972;28;20060;-60
2023/08/23 07:41:25;;;;;;;8.18;4.28;;;;;;;;;;5057047;28;20021;-60
2023/08/23 07:43:51;;;;;;;5.80;4.63;;;;;;;;;;5056997;28;20017;-60
2023/08/23 07:46:17;;;;;;;7.53;5.18;;;;;;;;;;5056972;28;20025;-60
2023/08/23 07:48:43;;;;;;;5.65;5.00;;;;;;;;;;5057055;28;20029;-60
2023/08/23 07:51:09;;;;;;;6.88;5.10;;;;;;;;;;5056783;28;20024;-59
2023/08/23 07:53:35;;;;;;;5.78;5.18;;;;;;;;;;5056731;28;20052;-60
2023/08/23 07:56:02;;;;;;;5.00;4.25;;;;;;;;;;5056895;28;20502;-60
2023/08/23 07:58:28;;;;;;;8.02;4.78;;;;;;;;;;5057002;28;20032;-60
2023/08/23 08:00:54;;;;;;;7.65;4.45;;;;;;;;;;5056577;28;20032;-60
2023/08/23 08:03:20;;;;;;;7.72;4.95;;;;;;;;;;5056444;28;20029;-60
2023/08/23 08:05:47;;;;;;;5.82;4.80;;;;;;;;;;5056979;28;20033;-60
2023/08/23 08:08:13;;;;;;;5.70;4.82;;;;;;;;;;5056501;28;20102;-60
2023/08/23 08:10:40;;;;;;;4.70;4.22;;;;;;;;;;5056791;28;20112;-60
2023/08/23 08:13:06;;;;;;;5.32;4.43;;;;;;;;;;5056736;28;20029;-60
2023/08/23 08:15:32;;;;;;;5.75;5.25;;;;;;;;;;5056407;28;20021;-60
2023/08/23 08:17:58;;;;;;;4.55;4.03;;;;;;;;;;5056446;28;20025;-60
2023/08/23 08:20:24;;;;;;;5.80;5.13;;;;;;;;;;5055609;28;20029;-60
2023/08/23 08:22:51;;;;;;;7.72;5.40;;;;;;;;;;5056241;28;20028;-60
2023/08/23 08:25:17;;;;;;;5.15;4.55;;;;;;;;;;5056205;28;20082;-60
2023/08/23 08:27:43;;;;;;;5.55;5.05;;;;;;;;;;5056155;28;20036;-60
2023/08/23 08:30:09;;;;;;;5.55;4.47;;;;;;;;;;5056146;28;20367;-60
2023/08/23 08:32:35;;;;;;;5.90;4.60;;;;;;;;;;5056084;28;20028;-60
2023/08/23 08:35:01;;;;;;;5.53;4.15;;;;;;;;;;5055848;28;20064;-60
2023/08/23 08:37:27;;;;;;;6.53;4.68;;;;;;;;;;5055193;28;20103;-60
2023/08/23 08:39:56;;;;;;;5.07;4.35;;;;;;;;;;5055377;28;20025;-60
2023/08/23 08:42:22;;;;;;;6.38;5.03;;;;;;;;;;5055920;28;20025;-60
2023/08/23 08:44:48;;;;;;;4.30;3.90;;;;;;;;;;5056084;28;20028;-60
2023/08/23 08:47:15;;;;;;;6.00;4.80;;;;;;;;;;5055809;28;20025;-60
2023/08/23 08:49:41;;;;;;;6.50;5.80;;;;;;;;;;5055935;28;20028;-60
2023/08/23 08:52:08;;;;;;;10.00;6.13;;;;;;;;;;5055832;28;20036;-60
2023/08/23 08:54:34;;;;;;;5.60;4.95;;;;;;;;;;5055604;28;20075;-60
2023/08/23 08:57:01;;;;;;;6.45;4.75;;;;;;;;;;5055647;28;20027;-60
2023/08/23 08:59:27;;;;;;;4.57;4.18;;;;;;;;;;5055460;28;20021;-60
2023/08/23 09:02:00;;;;;;;5.38;4.78;;;;;;;;;;5055507;28;20037;-60
2023/08/23 09:04:26;;;;;;;8.70;5.28;;;;;;;;;;5055770;28;20017;-60
2023/08/23 09:06:53;;;;;;;5.30;4.65;;;;;;;;;;5055827;28;20033;-60
2023/08/23 09:09:19;;;;;;;5.13;4.63;;;;;;;;;;5056013;28;20520;-60
2023/08/23 09:11:45;;;;;;;7.47;5.32;;;;;;;;;;5055418;28;20057;-60
2023/08/23 09:14:14;;;;;;;4.75;4.20;;;;;;;;;;5055918;28;20024;-60
2023/08/23 09:16:40;;;;;;;5.28;4.78;;;;;;;;;;5055237;28;20032;-60
2023/08/23 09:19:09;;;;;;;5.10;4.57;;;;;;;;;;5055362;28;20021;-60
2023/08/23 09:21:35;;;;;;;7.13;5.60;;;;;;;;;;5055802;28;20040;-60
2023/08/23 09:24:00;;;;;;;8.52;4.95;;;;;;;;;;5055117;28;20083;-60
2023/08/23 09:26:26;;;;;;;6.32;5.60;;;;;;;;;;5055163;28;20455;-60
2023/08/23 09:28:53;;;;;;;6.82;6.03;;;;;;;;;;5055669;28;20482;-60
2023/08/23 09:31:19;;;;;;;6.22;5.63;;;;;;;;;;5055211;28;20028;-60
2023/08/23 09:33:46;;;;;;;6.72;5.00;;;;;;;;;;5054926;28;20366;-60
2023/08/23 09:36:12;;;;;;;6.25;4.90;;;;;;;;;;5055972;28;20036;-60
2023/08/23 09:38:39;;;;;;;5.68;5.10;;;;;;;;;;5054712;28;20363;-60
2023/08/23 09:41:06;;;;;;;13.85;4.97;;;;;;;;;;5054991;28;20013;-60
2023/08/23 09:43:34;;;;;;;5.75;4.72;;;;;;;;;;5054844;28;20025;-60
2023/08/23 09:46:03;;;;;;;4.90;4.40;;;;;;;;;;5054731;28;20451;-60
2023/08/23 09:48:31;;;;;;;7.50;5.00;;;;;;;;;;5054652;28;20029;-60
2023/08/23 09:50:58;;;;;;;5.85;5.18;;;;;;;;;;5054518;28;20036;-60
2023/08/23 09:53:28;;;;;;;4.90;4.30;;;;;;;;;;5054734;28;20078;-60
2023/08/23 09:55:54;;;;;;;5.85;5.05;;;;;;;;;;5055097;28;20367;-60
2023/08/23 09:58:20;;;;;;;5.63;5.00;;;;;;;;;;5054465;28;20056;-60
2023/08/23 10:00:49;;;;;;;5.50;4.90;;;;;;;;;;5054507;28;20037;-59
2023/08/23 10:03:15;;;;;;;5.00;4.38;;;;;;;;;;5054308;28;20021;-60
2023/08/23 10:05:42;;;;;;;5.53;4.60;;;;;;;;;;5053830;28;20502;-60
2023/08/23 10:08:10;;;;;;;6.65;5.15;;;;;;;;;;5054222;28;20120;-60
2023/08/23 10:10:36;;;;;;;5.63;5.13;;;;;;;;;;5053985;28;20025;-60
2023/08/23 10:13:04;;;;;;;6.03;4.63;;;;;;;;;;5054704;28;20036;-60
2023/08/23 10:15:35;;;;;;;5.72;5.15;;;;;;;;;;5054173;28;20025;-60
2023/08/23 10:18:02;;;;;;;5.32;4.40;;;;;;;;;;5053568;28;20570;-60
2023/08/23 10:20:27;;;;;;;4.93;4.43;;;;;;;;;;5054507;28;20031;-60
2023/08/23 10:22:55;;;;;;;4.97;4.43;;;;;;;;;;5053889;28;20103;-60
2023/08/23 10:25:22;;;;;;;5.72;4.70;;;;;;;;;;5053988;28;20039;-60
2023/08/23 10:27:49;;;;;;;12.32;4.10;;;;;;;;;;5054670;28;20028;-60
2023/08/23 10:30:16;;;;;;;5.18;4.65;;;;;;;;;;5054422;28;20021;-60
2023/08/23 10:32:44;;;;;;;5.00;4.50;;;;;;;;;;5054073;28;20033;-60
2023/08/23 10:35:22;;;;;;;5.90;3.92;;;;;;;;;;5054427;28;20470;-60
2023/08/23 10:37:48;;;;;;;5.07;4.45;;;;;;;;;;5054211;28;20025;-60
2023/08/23 10:40:18;;;;;;;5.68;4.65;;;;;;;;;;5054526;28;20091;-60
2023/08/23 10:42:44;;;;;;;4.95;3.97;;;;;;;;;;5053397;28;20025;-60
2023/08/23 10:45:10;;;;;;;5.38;4.10;;;;;;;;;;5053953;28;20371;-60
2023/08/23 10:47:37;;;;;;;7.72;3.53;;;;;;;;;;5053564;28;20372;-60
2023/08/23 10:50:04;;;;;;;4.00;3.60;;;;;;;;;;5054212;28;20021;-60
2023/08/23 10:52:30;;;;;;;5.20;4.00;;;;;;;;;;5053419;28;20474;-60
2023/08/23 10:54:57;;;;;;;4.80;4.07;;;;;;;;;;5053608;28;20035;-60
2023/08/23 10:57:23;;;;;;;4.88;3.95;;;;;;;;;;5054025;28;20378;-60
2023/08/23 10:59:49;;;;;;;5.97;3.85;;;;;;;;;;5054152;28;20092;-60
2023/08/23 11:02:15;;;;;;;5.53;4.30;;;;;;;;;;5053004;28;20025;-60
2023/08/23 11:04:42;;;;;;;4.88;4.30;;;;;;;;;;5054275;28;20352;-60
2023/08/23 11:07:08;;;;;;;5.35;3.70;;;;;;;;;;5053221;28;20374;-60
2023/08/23 11:09:35;;;;;;;3.60;3.22;;;;;;;;;;5054047;28;20017;-60
2023/08/23 11:12:01;;;;;;;5.40;4.25;;;;;;;;;;5053043;28;20455;-60
2023/08/23 11:14:27;;;;;;;4.90;4.25;;;;;;;;;;5053362;28;20025;-60
2023/08/23 11:16:53;;;;;;;4.30;3.55;;;;;;;;;;5053107;28;20348;-60
2023/08/23 11:19:19;;;;;;;4.40;3.88;;;;;;;;;;5053767;28;20021;-60
2023/08/23 11:21:46;;;;;;;4.38;3.97;;;;;;;;;;5054177;28;20029;-60
2023/08/23 11:24:13;;;;;;;4.25;3.75;;;;;;;;;;5054123;28;20029;-60
2023/08/23 11:26:39;;;;;;;4.82;3.95;;;;;;;;;;5053267;28;20029;-60
2023/08/23 11:29:05;;;;;;;5.78;4.07;;;;;;;;;;5054043;28;20017;-60
2023/08/23 11:31:35;;;;;;;4.60;3.92;;;;;;;;;;5053255;28;20418;-60
2023/08/23 11:34:05;;;;;;;4.18;3.78;;;;;;;;;;5052888;28;20542;-60
2023/08/23 11:36:32;;;;;;;7.05;3.97;;;;;;;;;;5052793;28;20399;-60
2023/08/23 11:39:00;;;;;;;3.88;3.47;;;;;;;;;;5053113;28;20501;-60
2023/08/23 11:41:28;;;;;;;4.40;3.78;;;;;;;;;;5053055;28;20029;-60
2023/08/23 11:43:54;;;;;;;4.07;3.67;;;;;;;;;;5053561;28;20021;-60
2023/08/23 11:46:20;;;;;;;5.15;4.05;;;;;;;;;;5054433;28;20143;-59
2023/08/23 11:48:46;;;;;;;4.82;3.75;;;;;;;;;;5053135;28;20040;-60
2023/08/23 11:51:12;;;;;;;4.30;3.67;;;;;;;;;;5053324;28;20029;-60
2023/08/23 11:53:48;;;;;;;5.72;3.85;;;;;;;;;;5053612;28;20372;-60
2023/08/23 11:56:14;;;;;;;3.35;3.00;;;;;;;;;;5053283;28;20096;-60
2023/08/23 11:58:40;;;;;;;4.88;3.38;;;;;;;;;;5052833;28;20071;-60
2023/08/23 12:01:06;;;;;;;5.47;4.25;;;;;;;;;;5052861;28;20029;-60
2023/08/23 12:03:32;;;;;;;6.55;4.07;;;;;;;;;;5053238;28;20102;-60
2023/08/23 12:05:58;;;;;;;6.30;3.90;;;;;;;;;;5053140;28;20025;-61
2023/08/23 12:08:24;;;;;;;4.95;4.32;;;;;;;;;;5052935;28;20462;-60
2023/08/23 12:10:50;;;;;;;5.10;4.25;;;;;;;;;;5053463;28;20470;-60
2023/08/23 12:13:16;;;;;;;4.47;4.05;;;;;;;;;;5054189;28;20064;-60
2023/08/23 12:15:42;;;;;;;4.88;4.10;;;;;;;;;;5056643;28;20521;-60
2023/08/23 12:18:08;;;;;;;8.10;4.53;;;;;;;;;;5056827;28;20355;-60
2023/08/23 12:20:34;;;;;;;4.97;3.95;;;;;;;;;;5056932;28;20029;-60
2023/08/23 12:23:00;;;;;;;4.60;3.55;;;;;;;;;;5056771;28;20061;-60
2023/08/23 12:25:26;;;;;;;4.88;3.75;;;;;;;;;;5056190;28;20025;-60
2023/08/23 12:27:52;;;;;;;4.03;3.50;;;;;;;;;;5056505;28;20032;-60
2023/08/23 12:30:18;;;;;;;4.40;4.00;;;;;;;;;;5056166;28;20021;-60
2023/08/23 12:32:44;;;;;;;4.45;4.05;;;;;;;;;;5055666;28;20524;-60
2023/08/23 12:35:10;;;;;;;4.63;3.40;;;;;;;;;;5056034;28;20048;-60
2023/08/23 12:37:36;;;;;;;4.72;3.50;;;;;;;;;;5056822;28;20024;-60
2023/08/23 12:40:04;;;;;;;8.25;3.67;;;;;;;;;;5055940;28;20032;-60
2023/08/23 12:42:30;;;;;;;5.25;4.13;;;;;;;;;;5056689;28;20036;-60
2023/08/23 12:44:58;;;;;;;4.93;4.00;;;;;;;;;;5055855;28;20025;-60
2023/08/23 12:47:25;;;;;;;6.32;4.03;;;;;;;;;;5056284;28;20067;-60
2023/08/23 12:49:50;;;;;;;4.13;3.72;;;;;;;;;;5055726;28;20536;-60
2023/08/23 12:52:19;;;;;;;4.10;3.70;;;;;;;;;;5056303;28;20115;-60
2023/08/23 12:54:45;;;;;;;5.20;4.20;;;;;;;;;;5055677;28;20106;-60
2023/08/23 12:57:11;;;;;;;9.20;4.60;;;;;;;;;;5055321;28;20059;-60
2023/08/23 12:59:37;;;;;;;5.18;4.35;;;;;;;;;;5055626;28;20075;-60
2023/08/23 13:02:03;;;;;;;5.18;4.00;;;;;;;;;;5055853;28;20017;-60
2023/08/23 13:04:29;;;;;;;3.97;3.47;;;;;;;;;;5056152;28;20405;-60
2023/08/23 13:06:55;;;;;;;4.57;3.33;;;;;;;;;;5056127;28;20032;-60
2023/08/23 13:09:22;;;;;;;3.65;3.33;;;;;;;;;;5055580;28;20025;-60
2023/08/23 13:11:48;;;;;;;3.83;3.42;;;;;;;;;;5055261;28;20032;-60
2023/08/23 13:14:14;;;;;;;3.50;2.72;;;;;;;;;;5055584;28;20025;-60
2023/08/23 13:16:40;;;;;;;4.38;3.53;;;;;;;;;;5055190;28;20024;-60
2023/08/23 13:19:06;;;;;;;7.82;3.50;;;;;;;;;;5055372;28;20104;-60
2023/08/23 13:21:31;;;;;;;4.20;3.80;;;;;;;;;;5055376;28;20045;-60
2023/08/23 13:23:59;;;;;;;4.85;3.42;;;;;;;;;;5054022;28;20033;-60
2023/08/23 13:26:24;;;;;;;4.95;4.20;;;;;;;;;;5055067;28;20070;-60
2023/08/23 13:28:50;;;;;;;5.85;4.30;;;;;;;;;;5055047;28;20455;-60
2023/08/23 13:31:16;;;;;;;5.20;3.53;;;;;;;;;;5055556;28;20466;-60
2023/08/23 13:33:46;;;;;;;4.45;3.33;;;;;;;;;;5055312;28;20043;-60
2023/08/23 13:36:15;;;;;;;4.45;3.40;;;;;;;;;;5055226;28;20401;-60
2023/08/23 13:38:42;;;;;;;4.65;3.80;;;;;;;;;;5054227;28;20047;-60
2023/08/23 13:41:08;;;;;;;7.13;3.67;;;;;;;;;;5055112;28;20104;-60
2023/08/23 13:43:33;;;;;;;3.53;2.80;;;;;;;;;;5054284;28;20471;-60
2023/08/23 13:45:59;;;;;;;6.43;3.58;;;;;;;;;;5054757;28;20036;-60
2023/08/23 13:48:25;;;;;;;4.65;3.50;;;;;;;;;;5054597;28;20069;-60
2023/08/23 13:50:51;;;;;;;5.13;3.85;;;;;;;;;;5055182;28;20021;-60
2023/08/23 13:53:17;;;;;;;4.60;3.83;;;;;;;;;;5054866;28;20062;-60
2023/08/23 13:55:46;;;;;;;3.47;3.17;;;;;;;;;;5054634;28;20071;-60
2023/08/23 13:58:12;;;;;;;3.83;3.40;;;;;;;;;;5054381;28;20051;-60
2023/08/23 14:00:38;;;;;;;6.10;3.45;;;;;;;;;;5054740;28;20025;-60
2023/08/23 14:03:04;;;;;;;6.32;3.80;;;;;;;;;;5054354;28;20174;-60
2023/08/23 14:05:30;;;;;;;4.15;3.75;;;;;;;;;;5054626;28;20017;-60
2023/08/23 14:07:56;;;;;;;6.35;3.45;;;;;;;;;;5054797;28;20078;-60
2023/08/23 14:10:22;;;;;;;5.43;4.40;;;;;;;;;;5054543;28;20032;-60
2023/08/23 14:12:48;;;;;;;5.80;3.40;;;;;;;;;;5053944;28;20434;-60
2023/08/23 14:15:14;;;;;;;4.65;4.25;;;;;;;;;;5054178;28;20021;-60
2023/08/23 14:17:43;;;;;;;4.70;4.03;;;;;;;;;;5053998;28;20031;-60
2023/08/23 14:20:10;;;;;;;4.20;3.05;;;;;;;;;;5054677;28;20036;-60
2023/08/23 14:22:36;;;;;;;6.15;3.05;;;;;;;;;;5054085;28;20052;-60
2023/08/23 14:25:03;;;;;;;3.55;2.88;;;;;;;;;;5053949;28;20048;-60
2023/08/23 14:27:29;;;;;;;4.22;3.53;;;;;;;;;;5054469;28;20029;-61
2023/08/23 14:29:55;;;;;;;4.35;3.35;;;;;;;;;;5054760;28;20043;-61
2023/08/23 14:32:21;;;;;;;8.43;3.50;;;;;;;;;;5053880;28;20051;-61
2023/08/23 14:34:47;;;;;;;5.53;3.60;;;;;;;;;;5053596;28;20473;-61
2023/08/23 14:37:13;;;;;;;4.05;3.17;;;;;;;;;;5053553;28;20048;-61